sensor_id;sensor_type;location;lat;lon;timestamp;pressure;altitude;pressure_sealevel;temperature;humidity
40171;BME280;37650;52.790;18.268;2022-10-22T00:00:30;100117.41;;;9.94;100.00
40171;BME280;37650;52.790;18.268;2022-10-22T00:04:08;100114.62;;;9.94;100.00
40171;BME280;37650;52.790;18.268;2022-10-22T00:07:31;100111.55;;;9.96;100.00
40171;BME280;37650;52.790;18.268;2022-10-22T00:10:52;100109.86;;;9.99;100.00
40171;BME280;37650;52.790;18.268;2022-10-22T00:14:13;100113.79;;;10.02;100.00
40171;BME280;37650;52.790;18.268;2022-10-22T00:17:36;100109.56;;;10.03;100.00
40171;BME280;37650;52.790;18.268;2022-10-22T00:20:57;100112.76;;;10.01;100.00
40171;BME280;37650;52.790;18.268;2022-10-22T00:24:19;100110.64;;;10.01;100.00
40171;BME280;37650;52.790;18.268;2022-10-22T00:27:40;100106.92;;;10.03;100.00
40171;BME280;37650;52.790;18.268;2022-10-22T00:31:02;100108.56;;;10.05;100.00
40171;BME280;37650;52.790;18.268;2022-10-22T00:34:23;100103.16;;;10.09;100.00
40171;BME280;37650;52.790;18.268;2022-10-22T00:37:45;100100.40;;;10.12;100.00
40171;BME280;37650;52.790;18.268;2022-10-22T00:41:06;100098.52;;;10.16;100.00
40171;BME280;37650;52.790;18.268;2022-10-22T00:48:27;100095.09;;;10.19;100.00
40171;BME280;37650;52.790;18.268;2022-10-22T00:51:49;100093.98;;;10.20;100.00
40171;BME280;37650;52.790;18.268;2022-10-22T00:55:12;100089.84;;;10.23;100.00
40171;BME280;37650;52.790;18.268;2022-10-22T00:58:38;100086.73;;;10.26;100.00
40171;BME280;37650;52.790;18.268;2022-10-22T01:01:59;100084.75;;;10.27;100.00
40171;BME280;37650;52.790;18.268;2022-10-22T01:05:21;100082.58;;;10.29;100.00
40171;BME280;37650;52.790;18.268;2022-10-22T01:09:39;100079.95;;;10.29;100.00
40171;BME280;37650;52.790;18.268;2022-10-22T01:12:44;100078.14;;;10.31;100.00
40171;BME280;37650;52.790;18.268;2022-10-22T01:16:18;100076.10;;;10.33;100.00
40171;BME280;37650;52.790;18.268;2022-10-22T01:19:49;100071.86;;;10.34;100.00
40171;BME280;37650;52.790;18.268;2022-10-22T01:27:30;100058.44;;;10.32;100.00
40171;BME280;37650;52.790;18.268;2022-10-22T01:30:55;100062.64;;;10.32;100.00
40171;BME280;37650;52.790;18.268;2022-10-22T01:34:19;100060.11;;;10.34;100.00
40171;BME280;37650;52.790;18.268;2022-10-22T01:37:46;100060.06;;;10.35;100.00
40171;BME280;37650;52.790;18.268;2022-10-22T01:41:08;100054.41;;;10.36;100.00
40171;BME280;37650;52.790;18.268;2022-10-22T01:44:34;100055.88;;;10.35;100.00
40171;BME280;37650;52.790;18.268;2022-10-22T02:02:42;100054.27;;;10.44;100.00
40171;BME280;37650;52.790;18.268;2022-10-22T02:06:13;100042.39;;;10.47;100.00
40171;BME280;37650;52.790;18.268;2022-10-22T02:09:38;100043.67;;;10.50;100.00
40171;BME280;37650;52.790;18.268;2022-10-22T02:13:02;100040.42;;;10.48;100.00
40171;BME280;37650;52.790;18.268;2022-10-22T02:16:31;100032.90;;;10.47;100.00
40171;BME280;37650;52.790;18.268;2022-10-22T02:20:07;100038.09;;;10.49;100.00
40171;BME280;37650;52.790;18.268;2022-10-22T02:23:31;100035.22;;;10.51;100.00
40171;BME280;37650;52.790;18.268;2022-10-22T02:30:41;100032.80;;;10.50;100.00
40171;BME280;37650;52.790;18.268;2022-10-22T02:34:08;100036.73;;;10.52;100.00
40171;BME280;37650;52.790;18.268;2022-10-22T02:37:31;100037.75;;;10.53;100.00
40171;BME280;37650;52.790;18.268;2022-10-22T02:40:52;100039.42;;;10.51;100.00
40171;BME280;37650;52.790;18.268;2022-10-22T02:44:13;100038.92;;;10.50;100.00
40171;BME280;37650;52.790;18.268;2022-10-22T02:47:34;100042.08;;;10.50;100.00
40171;BME280;37650;52.790;18.268;2022-10-22T02:50:55;100048.48;;;10.52;100.00
40171;BME280;37650;52.790;18.268;2022-10-22T02:54:17;100053.30;;;10.50;100.00
40171;BME280;37650;52.790;18.268;2022-10-22T02:57:37;100042.27;;;10.49;100.00
40171;BME280;37650;52.790;18.268;2022-10-22T03:00:59;100052.98;;;10.50;100.00
40171;BME280;37650;52.790;18.268;2022-10-22T03:04:20;100055.70;;;10.51;100.00
40171;BME280;37650;52.790;18.268;2022-10-22T03:07:41;100062.61;;;10.54;100.00
40171;BME280;37650;52.790;18.268;2022-10-22T03:11:03;100065.06;;;10.54;100.00
40171;BME280;37650;52.790;18.268;2022-10-22T03:14:24;100051.98;;;10.52;100.00
40171;BME280;37650;52.790;18.268;2022-10-22T03:17:45;100048.26;;;10.53;100.00
40171;BME280;37650;52.790;18.268;2022-10-22T03:24:44;100053.55;;;10.53;100.00
40171;BME280;37650;52.790;18.268;2022-10-22T03:28:08;100052.26;;;10.54;100.00
40171;BME280;37650;52.790;18.268;2022-10-22T03:31:30;100060.35;;;10.53;100.00
40171;BME280;37650;52.790;18.268;2022-10-22T03:34:51;100063.77;;;10.52;100.00
40171;BME280;37650;52.790;18.268;2022-10-22T03:38:14;100062.75;;;10.54;100.00
40171;BME280;37650;52.790;18.268;2022-10-22T03:41:36;100063.59;;;10.56;100.00
40171;BME280;37650;52.790;18.268;2022-10-22T03:44:57;100063.92;;;10.56;100.00
40171;BME280;37650;52.790;18.268;2022-10-22T03:48:18;100074.51;;;10.54;100.00
40171;BME280;37650;52.790;18.268;2022-10-22T03:51:39;100078.22;;;10.54;100.00
40171;BME280;37650;52.790;18.268;2022-10-22T03:55:00;100078.74;;;10.53;100.00
40171;BME280;37650;52.790;18.268;2022-10-22T03:58:22;100077.64;;;10.55;100.00
40171;BME280;37650;52.790;18.268;2022-10-22T04:01:43;100078.64;;;10.57;100.00
40171;BME280;37650;52.790;18.268;2022-10-22T04:05:04;100070.55;;;10.58;100.00
40171;BME280;37650;52.790;18.268;2022-10-22T04:08:26;100065.95;;;10.59;100.00
40171;BME280;37650;52.790;18.268;2022-10-22T04:11:47;100060.63;;;10.60;100.00
40171;BME280;37650;52.790;18.268;2022-10-22T04:15:08;100053.64;;;10.59;100.00
40171;BME280;37650;52.790;18.268;2022-10-22T04:18:29;100053.14;;;10.63;100.00
40171;BME280;37650;52.790;18.268;2022-10-22T04:21:50;100052.45;;;10.63;100.00
40171;BME280;37650;52.790;18.268;2022-10-22T04:25:11;100047.92;;;10.62;100.00
40171;BME280;37650;52.790;18.268;2022-10-22T04:28:33;100047.58;;;10.62;100.00
40171;BME280;37650;52.790;18.268;2022-10-22T04:31:54;100045.01;;;10.60;100.00
40171;BME280;37650;52.790;18.268;2022-10-22T04:35:15;100038.59;;;10.58;100.00
40171;BME280;37650;52.790;18.268;2022-10-22T04:38:37;100045.79;;;10.58;100.00
40171;BME280;37650;52.790;18.268;2022-10-22T04:41:59;100047.25;;;10.57;100.00
40171;BME280;37650;52.790;18.268;2022-10-22T04:45:20;100040.10;;;10.56;100.00
40171;BME280;37650;52.790;18.268;2022-10-22T04:48:43;100035.63;;;10.53;100.00
40171;BME280;37650;52.790;18.268;2022-10-22T04:52:05;100036.62;;;10.50;100.00
40171;BME280;37650;52.790;18.268;2022-10-22T04:55:26;100045.71;;;10.51;100.00
40171;BME280;37650;52.790;18.268;2022-10-22T04:58:50;100054.63;;;10.52;100.00
40171;BME280;37650;52.790;18.268;2022-10-22T05:02:12;100057.64;;;10.56;100.00
40171;BME280;37650;52.790;18.268;2022-10-22T05:05:33;100062.82;;;10.53;100.00
40171;BME280;37650;52.790;18.268;2022-10-22T05:08:57;100061.84;;;10.52;100.00
40171;BME280;37650;52.790;18.268;2022-10-22T05:12:18;100056.30;;;10.54;100.00
40171;BME280;37650;52.790;18.268;2022-10-22T05:15:40;100062.37;;;10.56;100.00
40171;BME280;37650;52.790;18.268;2022-10-22T05:19:02;100063.98;;;10.55;100.00
40171;BME280;37650;52.790;18.268;2022-10-22T05:22:24;100067.11;;;10.51;100.00
40171;BME280;37650;52.790;18.268;2022-10-22T05:25:45;100061.02;;;10.50;100.00
40171;BME280;37650;52.790;18.268;2022-10-22T05:29:07;100061.85;;;10.51;100.00
40171;BME280;37650;52.790;18.268;2022-10-22T05:32:28;100068.56;;;10.54;100.00
40171;BME280;37650;52.790;18.268;2022-10-22T05:35:50;100068.80;;;10.57;100.00
40171;BME280;37650;52.790;18.268;2022-10-22T05:39:12;100077.28;;;10.60;100.00
40171;BME280;37650;52.790;18.268;2022-10-22T05:42:33;100089.23;;;10.59;100.00
40171;BME280;37650;52.790;18.268;2022-10-22T05:45:55;100094.58;;;10.62;100.00
40171;BME280;37650;52.790;18.268;2022-10-22T05:49:16;100103.49;;;10.63;100.00
40171;BME280;37650;52.790;18.268;2022-10-22T05:52:37;100100.13;;;10.63;100.00
40171;BME280;37650;52.790;18.268;2022-10-22T05:56:00;100095.98;;;10.66;100.00
40171;BME280;37650;52.790;18.268;2022-10-22T05:59:21;100090.81;;;10.68;100.00
40171;BME280;37650;52.790;18.268;2022-10-22T06:02:43;100091.63;;;10.69;100.00
40171;BME280;37650;52.790;18.268;2022-10-22T06:06:11;100085.10;;;10.70;100.00
40171;BME280;37650;52.790;18.268;2022-10-22T06:09:35;100090.09;;;10.72;100.00
40171;BME280;37650;52.790;18.268;2022-10-22T06:12:56;100081.90;;;10.75;100.00
40171;BME280;37650;52.790;18.268;2022-10-22T06:16:18;100086.02;;;10.78;100.00
40171;BME280;37650;52.790;18.268;2022-10-22T06:19:39;100090.84;;;10.83;100.00
40171;BME280;37650;52.790;18.268;2022-10-22T06:23:00;100099.98;;;10.87;100.00
40171;BME280;37650;52.790;18.268;2022-10-22T06:26:22;100109.81;;;10.87;100.00
40171;BME280;37650;52.790;18.268;2022-10-22T06:29:43;100117.73;;;10.86;100.00
40171;BME280;37650;52.790;18.268;2022-10-22T06:33:04;100120.52;;;10.86;100.00
40171;BME280;37650;52.790;18.268;2022-10-22T06:36:25;100113.52;;;10.90;100.00
40171;BME280;37650;52.790;18.268;2022-10-22T06:39:47;100107.02;;;10.95;100.00
40171;BME280;37650;52.790;18.268;2022-10-22T06:43:09;100109.14;;;10.94;100.00
40171;BME280;37650;52.790;18.268;2022-10-22T06:46:30;100111.75;;;10.99;100.00
40171;BME280;37650;52.790;18.268;2022-10-22T06:49:51;100120.16;;;11.00;100.00
40171;BME280;37650;52.790;18.268;2022-10-22T06:53:13;100121.03;;;11.00;100.00
40171;BME280;37650;52.790;18.268;2022-10-22T06:56:34;100127.27;;;11.01;100.00
40171;BME280;37650;52.790;18.268;2022-10-22T06:59:55;100136.15;;;11.03;100.00
40171;BME280;37650;52.790;18.268;2022-10-22T07:03:16;100143.20;;;11.06;100.00
40171;BME280;37650;52.790;18.268;2022-10-22T07:06:37;100151.22;;;11.08;100.00
40171;BME280;37650;52.790;18.268;2022-10-22T07:09:58;100157.64;;;11.10;100.00
40171;BME280;37650;52.790;18.268;2022-10-22T07:13:19;100160.45;;;11.10;100.00
40171;BME280;37650;52.790;18.268;2022-10-22T07:16:40;100166.45;;;11.12;100.00
40171;BME280;37650;52.790;18.268;2022-10-22T07:20:04;100164.61;;;11.15;100.00
40171;BME280;37650;52.790;18.268;2022-10-22T07:23:26;100165.52;;;11.22;100.00
40171;BME280;37650;52.790;18.268;2022-10-22T07:26:48;100171.38;;;11.28;100.00
40171;BME280;37650;52.790;18.268;2022-10-22T07:30:10;100170.42;;;11.30;100.00
40171;BME280;37650;52.790;18.268;2022-10-22T07:33:31;100166.39;;;11.35;100.00
40171;BME280;37650;52.790;18.268;2022-10-22T07:36:53;100169.54;;;11.43;100.00
40171;BME280;37650;52.790;18.268;2022-10-22T07:40:14;100175.73;;;11.50;100.00
40171;BME280;37650;52.790;18.268;2022-10-22T07:43:35;100173.46;;;11.57;100.00
40171;BME280;37650;52.790;18.268;2022-10-22T07:46:57;100182.04;;;11.62;100.00
40171;BME280;37650;52.790;18.268;2022-10-22T07:50:18;100191.04;;;11.65;100.00
40171;BME280;37650;52.790;18.268;2022-10-22T07:53:39;100189.52;;;11.67;100.00
40171;BME280;37650;52.790;18.268;2022-10-22T07:57:01;100187.77;;;11.71;100.00
40171;BME280;37650;52.790;18.268;2022-10-22T08:00:21;100184.71;;;11.74;100.00
40171;BME280;37650;52.790;18.268;2022-10-22T08:03:43;100180.23;;;11.75;100.00
40171;BME280;37650;52.790;18.268;2022-10-22T08:07:05;100180.48;;;11.77;100.00
40171;BME280;37650;52.790;18.268;2022-10-22T08:10:26;100178.48;;;11.75;100.00
40171;BME280;37650;52.790;18.268;2022-10-22T08:13:47;100175.39;;;11.77;100.00
40171;BME280;37650;52.790;18.268;2022-10-22T08:17:08;100175.83;;;11.80;100.00
40171;BME280;37650;52.790;18.268;2022-10-22T08:20:29;100175.56;;;11.86;100.00
40171;BME280;37650;52.790;18.268;2022-10-22T08:23:50;100186.22;;;11.83;100.00
40171;BME280;37650;52.790;18.268;2022-10-22T08:27:11;100194.05;;;11.81;100.00
40171;BME280;37650;52.790;18.268;2022-10-22T08:30:32;100192.98;;;11.81;100.00
40171;BME280;37650;52.790;18.268;2022-10-22T08:33:53;100195.48;;;11.84;100.00
40171;BME280;37650;52.790;18.268;2022-10-22T08:37:15;100191.72;;;11.90;100.00
40171;BME280;37650;52.790;18.268;2022-10-22T08:40:38;100185.11;;;11.88;100.00
40171;BME280;37650;52.790;18.268;2022-10-22T08:51:26;100176.23;;;11.98;100.00
40171;BME280;37650;52.790;18.268;2022-10-22T08:54:56;100176.99;;;12.04;100.00
40171;BME280;37650;52.790;18.268;2022-10-22T09:01:46;100175.17;;;12.20;100.00
40171;BME280;37650;52.790;18.268;2022-10-22T09:05:18;100182.21;;;12.24;100.00
40171;BME280;37650;52.790;18.268;2022-10-22T09:08:43;100176.53;;;12.25;100.00
40171;BME280;37650;52.790;18.268;2022-10-22T09:12:06;100177.83;;;12.28;100.00
40171;BME280;37650;52.790;18.268;2022-10-22T09:15:28;100181.26;;;12.29;100.00
40171;BME280;37650;52.790;18.268;2022-10-22T09:26:14;100185.23;;;12.31;100.00
40171;BME280;37650;52.790;18.268;2022-10-22T09:29:36;100193.39;;;12.29;100.00
40171;BME280;37650;52.790;18.268;2022-10-22T09:36:27;100200.98;;;12.36;100.00
40171;BME280;37650;52.790;18.268;2022-10-22T09:39:53;100196.77;;;12.36;100.00
40171;BME280;37650;52.790;18.268;2022-10-22T09:43:15;100199.58;;;12.36;100.00
40171;BME280;37650;52.790;18.268;2022-10-22T09:46:38;100203.55;;;12.38;100.00
40171;BME280;37650;52.790;18.268;2022-10-22T09:50:28;100211.64;;;12.41;100.00
40171;BME280;37650;52.790;18.268;2022-10-22T09:54:01;100226.84;;;12.44;100.00
40171;BME280;37650;52.790;18.268;2022-10-22T09:57:23;100233.20;;;12.47;100.00
40171;BME280;37650;52.790;18.268;2022-10-22T10:00:49;100233.89;;;12.44;100.00
40171;BME280;37650;52.790;18.268;2022-10-22T10:04:13;100240.64;;;12.35;100.00
40171;BME280;37650;52.790;18.268;2022-10-22T10:07:35;100237.68;;;12.30;100.00
40171;BME280;37650;52.790;18.268;2022-10-22T10:11:31;100232.43;;;12.29;100.00
40171;BME280;37650;52.790;18.268;2022-10-22T10:15:16;100230.26;;;12.38;100.00
40171;BME280;37650;52.790;18.268;2022-10-22T10:19:09;100232.34;;;12.43;100.00
40171;BME280;37650;52.790;18.268;2022-10-22T10:22:40;100218.30;;;12.49;100.00
40171;BME280;37650;52.790;18.268;2022-10-22T10:26:15;100219.02;;;12.57;100.00
40171;BME280;37650;52.790;18.268;2022-10-22T10:30:12;100212.79;;;12.61;100.00
40171;BME280;37650;52.790;18.268;2022-10-22T10:41:23;100215.45;;;12.75;100.00
40171;BME280;37650;52.790;18.268;2022-10-22T10:44:54;100207.10;;;12.84;100.00
40171;BME280;37650;52.790;18.268;2022-10-22T10:52:20;100214.98;;;12.88;100.00
40171;BME280;37650;52.790;18.268;2022-10-22T10:55:56;100211.51;;;12.84;100.00
40171;BME280;37650;52.790;18.268;2022-10-22T10:59:35;100212.91;;;12.84;100.00
40171;BME280;37650;52.790;18.268;2022-10-22T11:03:16;100214.34;;;12.80;100.00
40171;BME280;37650;52.790;18.268;2022-10-22T11:06:43;100211.18;;;12.80;100.00
40171;BME280;37650;52.790;18.268;2022-10-22T11:13:58;100203.77;;;12.77;100.00
40171;BME280;37650;52.790;18.268;2022-10-22T11:17:25;100208.64;;;12.74;100.00
40171;BME280;37650;52.790;18.268;2022-10-22T11:20:56;100209.58;;;12.77;100.00
40171;BME280;37650;52.790;18.268;2022-10-22T11:24:34;100204.59;;;12.82;100.00
40171;BME280;37650;52.790;18.268;2022-10-22T11:28:09;100206.70;;;12.85;100.00
40171;BME280;37650;52.790;18.268;2022-10-22T11:31:31;100205.15;;;12.92;100.00
40171;BME280;37650;52.790;18.268;2022-10-22T11:34:57;100199.56;;;12.94;100.00
40171;BME280;37650;52.790;18.268;2022-10-22T11:38:23;100200.29;;;12.93;100.00
40171;BME280;37650;52.790;18.268;2022-10-22T11:41:45;100197.17;;;12.96;100.00
40171;BME280;37650;52.790;18.268;2022-10-22T11:48:36;100199.39;;;13.08;100.00
40171;BME280;37650;52.790;18.268;2022-10-22T11:55:47;100198.19;;;13.07;100.00
40171;BME280;37650;52.790;18.268;2022-10-22T12:00:26;100202.09;;;13.07;100.00
40171;BME280;37650;52.790;18.268;2022-10-22T12:07:00;100200.71;;;12.99;100.00
40171;BME280;37650;52.790;18.268;2022-10-22T12:10:26;100201.05;;;12.99;100.00
40171;BME280;37650;52.790;18.268;2022-10-22T12:17:32;100200.05;;;13.05;100.00
40171;BME280;37650;52.790;18.268;2022-10-22T12:20:54;100203.70;;;13.06;100.00
40171;BME280;37650;52.790;18.268;2022-10-22T12:24:18;100202.55;;;13.05;100.00
40171;BME280;37650;52.790;18.268;2022-10-22T12:27:40;100199.28;;;13.03;100.00
40171;BME280;37650;52.790;18.268;2022-10-22T12:31:01;100196.02;;;13.01;100.00
40171;BME280;37650;52.790;18.268;2022-10-22T12:34:23;100195.81;;;13.02;100.00
40171;BME280;37650;52.790;18.268;2022-10-22T12:38:12;100196.38;;;13.08;100.00
40171;BME280;37650;52.790;18.268;2022-10-22T12:41:35;100195.23;;;13.10;100.00
40171;BME280;37650;52.790;18.268;2022-10-22T12:44:57;100197.67;;;13.12;100.00
40171;BME280;37650;52.790;18.268;2022-10-22T12:48:21;100197.85;;;13.11;100.00
40171;BME280;37650;52.790;18.268;2022-10-22T12:51:43;100188.71;;;13.07;100.00
40171;BME280;37650;52.790;18.268;2022-10-22T12:55:05;100180.27;;;13.07;100.00
40171;BME280;37650;52.790;18.268;2022-10-22T12:58:36;100176.67;;;13.08;100.00
40171;BME280;37650;52.790;18.268;2022-10-22T13:01:58;100174.10;;;13.14;100.00
40171;BME280;37650;52.790;18.268;2022-10-22T13:05:24;100174.55;;;13.19;100.00
40171;BME280;37650;52.790;18.268;2022-10-22T13:09:06;100178.41;;;13.23;100.00
40171;BME280;37650;52.790;18.268;2022-10-22T13:12:35;100178.11;;;13.25;100.00
40171;BME280;37650;52.790;18.268;2022-10-22T13:19:48;100179.66;;;13.26;100.00
40171;BME280;37650;52.790;18.268;2022-10-22T13:23:18;100176.66;;;13.26;100.00
40171;BME280;37650;52.790;18.268;2022-10-22T13:26:39;100175.27;;;13.26;100.00
40171;BME280;37650;52.790;18.268;2022-10-22T13:30:16;100175.22;;;13.24;100.00
40171;BME280;37650;52.790;18.268;2022-10-22T13:33:40;100171.27;;;13.21;100.00
40171;BME280;37650;52.790;18.268;2022-10-22T13:37:06;100174.05;;;13.19;100.00
40171;BME280;37650;52.790;18.268;2022-10-22T13:40:28;100180.41;;;13.19;100.00
40171;BME280;37650;52.790;18.268;2022-10-22T13:43:50;100178.00;;;13.18;100.00
40171;BME280;37650;52.790;18.268;2022-10-22T13:47:32;100171.02;;;13.16;100.00
40171;BME280;37650;52.790;18.268;2022-10-22T13:50:53;100178.73;;;13.14;100.00
40171;BME280;37650;52.790;18.268;2022-10-22T13:54:17;100178.80;;;13.12;100.00
40171;BME280;37650;52.790;18.268;2022-10-22T13:57:39;100181.30;;;13.11;100.00
40171;BME280;37650;52.790;18.268;2022-10-22T14:01:02;100181.48;;;13.11;100.00
40171;BME280;37650;52.790;18.268;2022-10-22T14:04:28;100179.86;;;13.12;100.00
40171;BME280;37650;52.790;18.268;2022-10-22T14:07:50;100179.68;;;13.12;100.00
40171;BME280;37650;52.790;18.268;2022-10-22T14:11:12;100177.04;;;13.08;100.00
40171;BME280;37650;52.790;18.268;2022-10-22T14:14:35;100182.69;;;13.08;100.00
40171;BME280;37650;52.790;18.268;2022-10-22T14:17:58;100180.98;;;13.07;100.00
40171;BME280;37650;52.790;18.268;2022-10-22T14:21:21;100173.52;;;13.04;100.00
40171;BME280;37650;52.790;18.268;2022-10-22T14:24:44;100174.02;;;13.01;100.00
40171;BME280;37650;52.790;18.268;2022-10-22T14:28:09;100181.58;;;13.01;100.00
40171;BME280;37650;52.790;18.268;2022-10-22T14:31:30;100181.06;;;13.01;100.00
40171;BME280;37650;52.790;18.268;2022-10-22T14:34:52;100185.71;;;13.00;100.00
40171;BME280;37650;52.790;18.268;2022-10-22T14:38:15;100190.95;;;12.97;100.00
40171;BME280;37650;52.790;18.268;2022-10-22T14:41:36;100200.84;;;12.97;100.00
40171;BME280;37650;52.790;18.268;2022-10-22T14:44:57;100207.29;;;12.94;100.00
40171;BME280;37650;52.790;18.268;2022-10-22T14:48:23;100210.44;;;12.92;100.00
40171;BME280;37650;52.790;18.268;2022-10-22T14:51:49;100210.35;;;12.89;100.00
40171;BME280;37650;52.790;18.268;2022-10-22T14:55:13;100209.46;;;12.90;100.00
40171;BME280;37650;52.790;18.268;2022-10-22T14:58:42;100209.67;;;12.89;100.00
40171;BME280;37650;52.790;18.268;2022-10-22T15:02:12;100210.37;;;12.89;100.00
40171;BME280;37650;52.790;18.268;2022-10-22T15:05:35;100208.23;;;12.86;100.00
40171;BME280;37650;52.790;18.268;2022-10-22T15:09:02;100202.88;;;12.84;100.00
40171;BME280;37650;52.790;18.268;2022-10-22T15:12:24;100198.38;;;12.83;100.00
40171;BME280;37650;52.790;18.268;2022-10-22T15:15:47;100203.00;;;12.82;100.00
40171;BME280;37650;52.790;18.268;2022-10-22T15:19:12;100206.70;;;12.82;100.00
40171;BME280;37650;52.790;18.268;2022-10-22T15:22:40;100210.08;;;12.81;100.00
40171;BME280;37650;52.790;18.268;2022-10-22T15:26:11;100211.11;;;12.81;100.00
40171;BME280;37650;52.790;18.268;2022-10-22T15:29:35;100216.27;;;12.80;100.00
40171;BME280;37650;52.790;18.268;2022-10-22T15:32:58;100220.11;;;12.77;100.00
40171;BME280;37650;52.790;18.268;2022-10-22T15:36:21;100226.17;;;12.76;100.00
40171;BME280;37650;52.790;18.268;2022-10-22T15:39:47;100227.80;;;12.75;100.00
40171;BME280;37650;52.790;18.268;2022-10-22T15:43:14;100227.33;;;12.74;100.00
40171;BME280;37650;52.790;18.268;2022-10-22T15:46:40;100232.39;;;12.75;100.00
40171;BME280;37650;52.790;18.268;2022-10-22T15:50:05;100237.31;;;12.75;100.00
40171;BME280;37650;52.790;18.268;2022-10-22T15:53:30;100241.92;;;12.74;100.00
40171;BME280;37650;52.790;18.268;2022-10-22T15:56:58;100240.56;;;12.73;100.00
40171;BME280;37650;52.790;18.268;2022-10-22T16:00:26;100242.11;;;12.74;100.00
40171;BME280;37650;52.790;18.268;2022-10-22T16:03:49;100245.78;;;12.74;100.00
40171;BME280;37650;52.790;18.268;2022-10-22T16:07:23;100252.09;;;12.75;100.00
40171;BME280;37650;52.790;18.268;2022-10-22T16:10:46;100255.29;;;12.74;100.00
40171;BME280;37650;52.790;18.268;2022-10-22T16:14:13;100260.55;;;12.75;100.00
40171;BME280;37650;52.790;18.268;2022-10-22T16:17:37;100264.09;;;12.74;100.00
40171;BME280;37650;52.790;18.268;2022-10-22T16:21:02;100264.75;;;12.72;100.00
40171;BME280;37650;52.790;18.268;2022-10-22T16:24:24;100270.71;;;12.68;100.00
40171;BME280;37650;52.790;18.268;2022-10-22T16:27:50;100269.39;;;12.66;100.00
40171;BME280;37650;52.790;18.268;2022-10-22T16:31:18;100269.84;;;12.65;100.00
40171;BME280;37650;52.790;18.268;2022-10-22T16:34:48;100274.27;;;12.64;100.00
40171;BME280;37650;52.790;18.268;2022-10-22T16:38:18;100276.27;;;12.62;100.00
40171;BME280;37650;52.790;18.268;2022-10-22T16:41:45;100280.19;;;12.61;100.00
40171;BME280;37650;52.790;18.268;2022-10-22T16:45:11;100283.08;;;12.60;100.00
40171;BME280;37650;52.790;18.268;2022-10-22T16:48:43;100285.84;;;12.57;100.00
40171;BME280;37650;52.790;18.268;2022-10-22T16:52:06;100287.98;;;12.53;100.00
40171;BME280;37650;52.790;18.268;2022-10-22T16:55:35;100288.91;;;12.51;100.00
40171;BME280;37650;52.790;18.268;2022-10-22T16:59:00;100286.94;;;12.49;100.00
40171;BME280;37650;52.790;18.268;2022-10-22T17:02:29;100290.04;;;12.46;100.00
40171;BME280;37650;52.790;18.268;2022-10-22T17:05:50;100294.52;;;12.44;100.00
40171;BME280;37650;52.790;18.268;2022-10-22T17:09:16;100299.38;;;12.42;100.00
40171;BME280;37650;52.790;18.268;2022-10-22T17:12:41;100303.48;;;12.41;100.00
40171;BME280;37650;52.790;18.268;2022-10-22T17:16:07;100308.23;;;12.41;100.00
40171;BME280;37650;52.790;18.268;2022-10-22T17:19:31;100308.10;;;12.40;100.00
40171;BME280;37650;52.790;18.268;2022-10-22T17:22:55;100310.80;;;12.39;100.00
40171;BME280;37650;52.790;18.268;2022-10-22T17:26:22;100318.88;;;12.39;100.00
40171;BME280;37650;52.790;18.268;2022-10-22T17:29:50;100320.97;;;12.40;100.00
40171;BME280;37650;52.790;18.268;2022-10-22T17:33:13;100325.54;;;12.40;100.00
40171;BME280;37650;52.790;18.268;2022-10-22T17:36:36;100330.73;;;12.41;100.00
40171;BME280;37650;52.790;18.268;2022-10-22T17:39:57;100330.30;;;12.43;100.00
40171;BME280;37650;52.790;18.268;2022-10-22T17:43:19;100335.17;;;12.44;100.00
40171;BME280;37650;52.790;18.268;2022-10-22T17:46:41;100340.74;;;12.45;100.00
40171;BME280;37650;52.790;18.268;2022-10-22T17:50:05;100342.27;;;12.47;100.00
40171;BME280;37650;52.790;18.268;2022-10-22T17:53:27;100345.89;;;12.49;100.00
40171;BME280;37650;52.790;18.268;2022-10-22T17:56:49;100354.73;;;12.51;100.00
40171;BME280;37650;52.790;18.268;2022-10-22T18:00:12;100352.66;;;12.54;100.00
40171;BME280;37650;52.790;18.268;2022-10-22T18:03:36;100351.80;;;12.58;100.00
40171;BME280;37650;52.790;18.268;2022-10-22T18:07:00;100355.61;;;12.63;100.00
40171;BME280;37650;52.790;18.268;2022-10-22T18:10:23;100355.77;;;12.63;100.00
40171;BME280;37650;52.790;18.268;2022-10-22T18:13:50;100359.29;;;12.63;100.00
40171;BME280;37650;52.790;18.268;2022-10-22T18:17:13;100358.52;;;12.65;100.00
40171;BME280;37650;52.790;18.268;2022-10-22T18:20:34;100361.23;;;12.67;100.00
40171;BME280;37650;52.790;18.268;2022-10-22T18:24:00;100359.61;;;12.68;100.00
40171;BME280;37650;52.790;18.268;2022-10-22T18:27:27;100359.54;;;12.69;100.00
40171;BME280;37650;52.790;18.268;2022-10-22T18:30:52;100356.55;;;12.73;100.00
40171;BME280;37650;52.790;18.268;2022-10-22T18:34:14;100362.29;;;12.75;100.00
40171;BME280;37650;52.790;18.268;2022-10-22T18:37:39;100362.88;;;12.73;100.00
40171;BME280;37650;52.790;18.268;2022-10-22T18:41:00;100359.86;;;12.74;100.00
40171;BME280;37650;52.790;18.268;2022-10-22T18:44:22;100358.58;;;12.75;100.00
40171;BME280;37650;52.790;18.268;2022-10-22T18:47:45;100355.37;;;12.76;100.00